Atlantic - Newfoundland: Past 24 Hour Conditions

 

Pool's Island

09:30 PM NDT 20 April 2014
This table is a summary of hourly weather conditions for the past 24 hours.
Date / Time
(NDT)
Wind(knots) Conditions Visibility(km) Pressure(kPa) Air tempC) Relative humidity(%) Dew pointC) Wind Chill
20 April 2014
21:30 NW 10 N/A N/A 101.5 -3 65 -9 -9
20:30 NW 13 gust 18 N/A N/A 101.4 -3 60 -10 -10
19:30 NNW 16 gust 24 N/A N/A 101.4 -2 57 -10 -10
18:30 NNW 19 gust 27 N/A N/A 101.3 -2 56 -10 -10
17:30 NNW 26 gust 37 N/A N/A 101.3 -3 61 -9 -12
16:30 NNW 26 gust 36 N/A N/A 101.2 -2 58 -9 -11
15:30 NNW 27 gust 32 N/A N/A 101.1 -3 63 -9 -12
14:30 NNW 25 gust 34 N/A N/A 101.1 -2 62 -9 -11
13:30 NNW 29 gust 35 N/A N/A 101.0 -3 69 -8 -13
12:30 NNW 31 gust 40 N/A N/A 101.0 -3 68 -8 -13
11:30 NNW 25 gust 37 N/A N/A 101.0 -3 72 -8 -13
10:30 NNW 23 gust 34 N/A N/A 101.0 -4 72 -8 -13
9:30 NNW 30 gust 35 N/A N/A 100.9 -4 71 -8 -13
8:30 NNW 29 gust 38 N/A N/A 100.8 -4 74 -8 -13
7:30 NNW 30 gust 38 N/A N/A 100.7 -3 75 -7 -13
6:30 N 26 gust 33 N/A N/A 100.7 -4 87 -5 -13
5:30 N 25 gust 33 N/A N/A 100.6 -3 89 -4 -12
4:30 N 20 gust 26 N/A N/A 100.6 -3 92 -4 -11
3:30 N 20 gust 26 N/A N/A 100.6 -3 93 -4 -12
2:30 N 24 gust 29 N/A N/A 100.5 -4 94 -4 -13
1:30 N 19 N/A N/A 100.6 -3 95 -4 -11
0:30 N 22 gust 31 N/A N/A 100.6 -3 95 -4 -12
19 April 2014
23:30 N 18 gust 23 N/A N/A 100.7 -3 96 -4 -11
22:30 NNE 18 gust 23 N/A N/A 100.7 -3 96 -4 -11
21:30 NE 18 gust 23 N/A N/A 100.8 -3 96 -3 -10
 
Map of Atlantic - Newfoundland marine weather areas Southwestern Grand Banks - 44138 Banquereau - 44139 Tail of the Bank - 44140 Nickerson Bank - 44251 Northeast Burgeo Bank - 44255 Blanc-Sablon Airport Cap Whittle Chevery Natashquan Airport Heath Point Miscou Island Grand Étang Ingonish Beach North Mountain St.Paul Island J.A. Douglas McCurdy Sydney Airport Charlottetown Airport East Point North Cape Argentia Bonavista Burgeo Cape Race Corner Brook Daniel's Harbour Englee Ferolle Point La Scie Port aux Basques Rocky Harbour Sagona Island St. Anthony Airport St. John's Int'l Airport St. Lawrence Stephenville Airport Twillingate Winterland Wreckhouse Cartwright Airport Mary's Harbour Grates Cove Pool's Island Marticot Island Long Pond Îles de la Madeleine Airport
Legend: buoyBuoy land stationLand Station